sensor_id;sensor_type;location;lat;lon;timestamp;P1;durP1;ratioP1;P2;durP2;ratioP2
48623;SDS011;34422;45.802;16.114;2023-04-25T00:02:07;6.20;;;3.42;;
48623;SDS011;34422;45.802;16.114;2023-04-25T00:04:34;7.22;;;4.00;;
48623;SDS011;34422;45.802;16.114;2023-04-25T00:07:01;5.85;;;3.30;;
48623;SDS011;34422;45.802;16.114;2023-04-25T00:09:28;6.53;;;2.88;;
48623;SDS011;34422;45.802;16.114;2023-04-25T00:11:55;8.15;;;3.50;;
48623;SDS011;34422;45.802;16.114;2023-04-25T00:14:21;5.95;;;2.90;;
48623;SDS011;34422;45.802;16.114;2023-04-25T00:16:49;6.97;;;2.97;;
48623;SDS011;34422;45.802;16.114;2023-04-25T00:19:17;5.22;;;2.83;;
48623;SDS011;34422;45.802;16.114;2023-04-25T00:21:45;7.70;;;3.17;;
48623;SDS011;34422;45.802;16.114;2023-04-25T00:24:12;6.05;;;3.10;;
48623;SDS011;34422;45.802;16.114;2023-04-25T00:26:39;8.95;;;3.15;;
48623;SDS011;34422;45.802;16.114;2023-04-25T00:29:06;6.22;;;3.25;;
48623;SDS011;34422;45.802;16.114;2023-04-25T00:31:33;5.07;;;2.75;;
48623;SDS011;34422;45.802;16.114;2023-04-25T00:33:59;6.15;;;3.30;;
48623;SDS011;34422;45.802;16.114;2023-04-25T00:36:26;7.43;;;3.38;;
48623;SDS011;34422;45.802;16.114;2023-04-25T00:38:53;6.90;;;3.40;;
48623;SDS011;34422;45.802;16.114;2023-04-25T00:41:21;5.78;;;2.97;;
48623;SDS011;34422;45.802;16.114;2023-04-25T00:43:48;6.95;;;3.40;;
48623;SDS011;34422;45.802;16.114;2023-04-25T00:46:15;6.32;;;3.38;;
48623;SDS011;34422;45.802;16.114;2023-04-25T00:48:42;7.97;;;4.65;;
48623;SDS011;34422;45.802;16.114;2023-04-25T00:51:09;7.40;;;4.53;;
48623;SDS011;34422;45.802;16.114;2023-04-25T00:53:40;7.13;;;4.07;;
48623;SDS011;34422;45.802;16.114;2023-04-25T00:56:07;8.88;;;5.35;;
48623;SDS011;34422;45.802;16.114;2023-04-25T00:58:34;8.55;;;5.13;;
48623;SDS011;34422;45.802;16.114;2023-04-25T01:01:01;10.30;;;5.85;;
48623;SDS011;34422;45.802;16.114;2023-04-25T01:03:28;9.82;;;5.20;;
48623;SDS011;34422;45.802;16.114;2023-04-25T01:05:59;7.47;;;4.80;;
48623;SDS011;34422;45.802;16.114;2023-04-25T01:08:26;8.02;;;4.88;;
48623;SDS011;34422;45.802;16.114;2023-04-25T01:10:52;10.18;;;5.00;;
48623;SDS011;34422;45.802;16.114;2023-04-25T01:13:19;9.23;;;4.47;;
48623;SDS011;34422;45.802;16.114;2023-04-25T01:15:46;15.30;;;5.18;;
48623;SDS011;34422;45.802;16.114;2023-04-25T01:18:13;8.13;;;5.03;;
48623;SDS011;34422;45.802;16.114;2023-04-25T01:20:40;8.93;;;5.25;;
48623;SDS011;34422;45.802;16.114;2023-04-25T01:23:08;8.40;;;4.22;;
48623;SDS011;34422;45.802;16.114;2023-04-25T01:25:35;7.68;;;4.40;;
48623;SDS011;34422;45.802;16.114;2023-04-25T01:28:03;8.40;;;4.68;;
48623;SDS011;34422;45.802;16.114;2023-04-25T01:30:29;8.40;;;4.65;;
48623;SDS011;34422;45.802;16.114;2023-04-25T01:32:56;7.10;;;4.25;;
48623;SDS011;34422;45.802;16.114;2023-04-25T01:35:23;6.25;;;3.95;;
48623;SDS011;34422;45.802;16.114;2023-04-25T01:37:51;7.38;;;4.65;;
48623;SDS011;34422;45.802;16.114;2023-04-25T01:40:18;7.07;;;4.25;;
48623;SDS011;34422;45.802;16.114;2023-04-25T01:42:47;9.15;;;3.95;;
48623;SDS011;34422;45.802;16.114;2023-04-25T01:45:14;7.25;;;4.45;;
48623;SDS011;34422;45.802;16.114;2023-04-25T01:47:41;6.78;;;3.80;;
48623;SDS011;34422;45.802;16.114;2023-04-25T01:50:10;7.07;;;3.50;;
48623;SDS011;34422;45.802;16.114;2023-04-25T01:52:37;6.22;;;3.50;;
48623;SDS011;34422;45.802;16.114;2023-04-25T01:55:05;6.65;;;3.95;;
48623;SDS011;34422;45.802;16.114;2023-04-25T01:57:32;6.75;;;3.72;;
48623;SDS011;34422;45.802;16.114;2023-04-25T02:00:00;5.55;;;3.58;;
48623;SDS011;34422;45.802;16.114;2023-04-25T02:02:29;6.55;;;3.88;;
48623;SDS011;34422;45.802;16.114;2023-04-25T02:04:56;6.78;;;3.75;;
48623;SDS011;34422;45.802;16.114;2023-04-25T02:07:22;6.53;;;3.80;;
48623;SDS011;34422;45.802;16.114;2023-04-25T02:09:49;6.45;;;4.03;;
48623;SDS011;34422;45.802;16.114;2023-04-25T02:12:16;6.65;;;3.85;;
48623;SDS011;34422;45.802;16.114;2023-04-25T02:14:43;6.30;;;4.00;;
48623;SDS011;34422;45.802;16.114;2023-04-25T02:17:09;5.72;;;3.60;;
48623;SDS011;34422;45.802;16.114;2023-04-25T02:19:36;8.10;;;4.28;;
48623;SDS011;34422;45.802;16.114;2023-04-25T02:22:03;7.32;;;4.50;;
48623;SDS011;34422;45.802;16.114;2023-04-25T02:24:29;8.13;;;5.00;;
48623;SDS011;34422;45.802;16.114;2023-04-25T02:26:57;6.85;;;4.35;;
48623;SDS011;34422;45.802;16.114;2023-04-25T02:29:23;7.30;;;4.40;;
48623;SDS011;34422;45.802;16.114;2023-04-25T02:31:50;7.00;;;4.10;;
48623;SDS011;34422;45.802;16.114;2023-04-25T02:34:17;7.30;;;4.32;;
48623;SDS011;34422;45.802;16.114;2023-04-25T02:36:44;7.35;;;4.25;;
48623;SDS011;34422;45.802;16.114;2023-04-25T02:39:11;10.45;;;5.00;;
48623;SDS011;34422;45.802;16.114;2023-04-25T02:41:37;7.40;;;3.90;;
48623;SDS011;34422;45.802;16.114;2023-04-25T02:44:04;8.05;;;4.57;;
48623;SDS011;34422;45.802;16.114;2023-04-25T02:46:31;8.05;;;4.63;;
48623;SDS011;34422;45.802;16.114;2023-04-25T02:48:58;7.03;;;4.10;;
48623;SDS011;34422;45.802;16.114;2023-04-25T02:51:24;8.10;;;4.20;;
48623;SDS011;34422;45.802;16.114;2023-04-25T02:53:52;9.40;;;4.90;;
48623;SDS011;34422;45.802;16.114;2023-04-25T02:56:19;8.07;;;4.22;;
48623;SDS011;34422;45.802;16.114;2023-04-25T02:58:46;9.20;;;4.47;;
48623;SDS011;34422;45.802;16.114;2023-04-25T03:01:12;7.75;;;4.68;;
48623;SDS011;34422;45.802;16.114;2023-04-25T03:03:39;7.32;;;4.30;;
48623;SDS011;34422;45.802;16.114;2023-04-25T03:06:06;8.70;;;5.25;;
48623;SDS011;34422;45.802;16.114;2023-04-25T03:08:33;7.65;;;4.85;;
48623;SDS011;34422;45.802;16.114;2023-04-25T03:11:00;6.40;;;3.60;;
48623;SDS011;34422;45.802;16.114;2023-04-25T03:13:27;7.38;;;4.35;;
48623;SDS011;34422;45.802;16.114;2023-04-25T03:15:56;7.93;;;4.70;;
48623;SDS011;34422;45.802;16.114;2023-04-25T03:18:23;9.43;;;4.25;;
48623;SDS011;34422;45.802;16.114;2023-04-25T03:20:49;7.32;;;4.60;;
48623;SDS011;34422;45.802;16.114;2023-04-25T03:23:16;8.18;;;4.70;;
48623;SDS011;34422;45.802;16.114;2023-04-25T03:25:43;6.68;;;4.05;;
48623;SDS011;34422;45.802;16.114;2023-04-25T03:28:09;8.05;;;4.10;;
48623;SDS011;34422;45.802;16.114;2023-04-25T03:30:36;6.55;;;3.85;;
48623;SDS011;34422;45.802;16.114;2023-04-25T03:33:03;8.65;;;4.10;;
48623;SDS011;34422;45.802;16.114;2023-04-25T03:35:30;7.60;;;4.18;;
48623;SDS011;34422;45.802;16.114;2023-04-25T03:37:57;7.82;;;4.80;;
48623;SDS011;34422;45.802;16.114;2023-04-25T03:40:23;7.43;;;4.28;;
48623;SDS011;34422;45.802;16.114;2023-04-25T03:42:50;7.63;;;4.15;;
48623;SDS011;34422;45.802;16.114;2023-04-25T03:45:17;8.77;;;4.35;;
48623;SDS011;34422;45.802;16.114;2023-04-25T03:47:44;7.82;;;4.82;;
48623;SDS011;34422;45.802;16.114;2023-04-25T03:50:11;8.88;;;4.70;;
48623;SDS011;34422;45.802;16.114;2023-04-25T03:52:37;7.32;;;4.43;;
48623;SDS011;34422;45.802;16.114;2023-04-25T03:55:04;10.00;;;4.22;;
48623;SDS011;34422;45.802;16.114;2023-04-25T03:57:31;9.27;;;5.72;;
48623;SDS011;34422;45.802;16.114;2023-04-25T03:59:58;7.70;;;4.70;;
48623;SDS011;34422;45.802;16.114;2023-04-25T04:02:25;8.07;;;4.75;;
48623;SDS011;34422;45.802;16.114;2023-04-25T04:04:51;7.97;;;4.80;;
48623;SDS011;34422;45.802;16.114;2023-04-25T04:07:18;9.07;;;5.57;;
48623;SDS011;34422;45.802;16.114;2023-04-25T04:09:45;9.82;;;5.15;;
48623;SDS011;34422;45.802;16.114;2023-04-25T04:12:11;7.90;;;4.68;;
48623;SDS011;34422;45.802;16.114;2023-04-25T04:14:38;8.88;;;4.53;;
48623;SDS011;34422;45.802;16.114;2023-04-25T04:17:05;8.93;;;4.50;;
48623;SDS011;34422;45.802;16.114;2023-04-25T04:19:32;7.80;;;3.90;;
48623;SDS011;34422;45.802;16.114;2023-04-25T04:21:59;6.80;;;4.15;;
48623;SDS011;34422;45.802;16.114;2023-04-25T04:24:26;6.32;;;3.78;;
48623;SDS011;34422;45.802;16.114;2023-04-25T04:26:52;6.30;;;3.10;;
48623;SDS011;34422;45.802;16.114;2023-04-25T04:29:19;6.53;;;3.80;;
48623;SDS011;34422;45.802;16.114;2023-04-25T04:31:48;6.43;;;3.03;;
48623;SDS011;34422;45.802;16.114;2023-04-25T04:34:15;7.82;;;3.60;;
48623;SDS011;34422;45.802;16.114;2023-04-25T04:36:42;6.10;;;3.15;;
48623;SDS011;34422;45.802;16.114;2023-04-25T04:39:11;5.97;;;3.45;;
48623;SDS011;34422;45.802;16.114;2023-04-25T04:41:39;6.38;;;3.33;;
48623;SDS011;34422;45.802;16.114;2023-04-25T04:44:06;7.35;;;3.83;;
48623;SDS011;34422;45.802;16.114;2023-04-25T04:46:33;6.45;;;3.83;;
48623;SDS011;34422;45.802;16.114;2023-04-25T04:49:04;6.93;;;3.80;;
48623;SDS011;34422;45.802;16.114;2023-04-25T04:51:31;7.85;;;4.03;;
48623;SDS011;34422;45.802;16.114;2023-04-25T04:53:58;6.85;;;3.55;;
48623;SDS011;34422;45.802;16.114;2023-04-25T04:56:28;5.72;;;3.33;;
48623;SDS011;34422;45.802;16.114;2023-04-25T04:58:57;6.32;;;3.47;;
48623;SDS011;34422;45.802;16.114;2023-04-25T05:01:25;6.57;;;3.17;;
48623;SDS011;34422;45.802;16.114;2023-04-25T05:03:52;6.38;;;3.78;;
48623;SDS011;34422;45.802;16.114;2023-04-25T05:06:19;6.53;;;3.58;;
48623;SDS011;34422;45.802;16.114;2023-04-25T05:08:46;5.82;;;3.20;;
48623;SDS011;34422;45.802;16.114;2023-04-25T05:11:12;5.57;;;3.28;;
48623;SDS011;34422;45.802;16.114;2023-04-25T05:13:39;7.88;;;3.45;;
48623;SDS011;34422;45.802;16.114;2023-04-25T05:16:06;8.88;;;3.75;;
48623;SDS011;34422;45.802;16.114;2023-04-25T05:18:32;5.65;;;3.53;;
48623;SDS011;34422;45.802;16.114;2023-04-25T05:20:59;6.28;;;3.80;;
48623;SDS011;34422;45.802;16.114;2023-04-25T05:23:26;6.10;;;3.58;;
48623;SDS011;34422;45.802;16.114;2023-04-25T05:25:54;6.85;;;3.58;;
48623;SDS011;34422;45.802;16.114;2023-04-25T05:28:21;5.38;;;3.00;;
48623;SDS011;34422;45.802;16.114;2023-04-25T05:30:48;5.22;;;2.70;;
48623;SDS011;34422;45.802;16.114;2023-04-25T05:33:15;5.35;;;2.60;;
48623;SDS011;34422;45.802;16.114;2023-04-25T05:35:42;6.25;;;1.90;;
48623;SDS011;34422;45.802;16.114;2023-04-25T05:38:09;4.50;;;1.85;;
48623;SDS011;34422;45.802;16.114;2023-04-25T05:40:35;4.15;;;1.75;;
48623;SDS011;34422;45.802;16.114;2023-04-25T05:43:02;5.35;;;1.88;;
48623;SDS011;34422;45.802;16.114;2023-04-25T05:45:29;4.60;;;1.60;;
48623;SDS011;34422;45.802;16.114;2023-04-25T05:47:55;3.45;;;1.40;;
48623;SDS011;34422;45.802;16.114;2023-04-25T05:50:22;3.30;;;1.20;;
48623;SDS011;34422;45.802;16.114;2023-04-25T05:52:51;3.15;;;1.25;;
48623;SDS011;34422;45.802;16.114;2023-04-25T05:55:17;3.35;;;1.00;;
48623;SDS011;34422;45.802;16.114;2023-04-25T05:57:44;3.67;;;1.00;;
48623;SDS011;34422;45.802;16.114;2023-04-25T06:00:12;3.83;;;1.10;;
48623;SDS011;34422;45.802;16.114;2023-04-25T06:02:41;2.67;;;0.85;;
48623;SDS011;34422;45.802;16.114;2023-04-25T06:05:08;3.08;;;1.08;;
48623;SDS011;34422;45.802;16.114;2023-04-25T06:07:35;3.17;;;1.08;;
48623;SDS011;34422;45.802;16.114;2023-04-25T06:10:02;4.80;;;1.85;;
48623;SDS011;34422;45.802;16.114;2023-04-25T06:15:00;4.88;;;1.10;;
48623;SDS011;34422;45.802;16.114;2023-04-25T06:17:27;3.65;;;1.20;;
48623;SDS011;34422;45.802;16.114;2023-04-25T06:19:54;4.35;;;1.35;;
48623;SDS011;34422;45.802;16.114;2023-04-25T06:22:21;5.32;;;1.60;;
48623;SDS011;34422;45.802;16.114;2023-04-25T06:24:48;4.78;;;1.23;;
48623;SDS011;34422;45.802;16.114;2023-04-25T06:27:14;2.80;;;1.20;;
48623;SDS011;34422;45.802;16.114;2023-04-25T06:29:41;3.38;;;0.98;;
48623;SDS011;34422;45.802;16.114;2023-04-25T06:32:08;5.97;;;1.20;;
48623;SDS011;34422;45.802;16.114;2023-04-25T06:34:34;3.38;;;1.15;;
48623;SDS011;34422;45.802;16.114;2023-04-25T06:37:01;4.03;;;1.83;;
48623;SDS011;34422;45.802;16.114;2023-04-25T06:39:28;3.08;;;1.30;;
48623;SDS011;34422;45.802;16.114;2023-04-25T06:41:54;4.53;;;1.60;;
48623;SDS011;34422;45.802;16.114;2023-04-25T06:44:21;4.03;;;1.45;;
48623;SDS011;34422;45.802;16.114;2023-04-25T06:46:51;3.17;;;1.10;;
48623;SDS011;34422;45.802;16.114;2023-04-25T06:49:18;3.78;;;1.00;;
48623;SDS011;34422;45.802;16.114;2023-04-25T06:51:45;3.88;;;0.95;;
48623;SDS011;34422;45.802;16.114;2023-04-25T06:54:12;3.55;;;1.20;;
48623;SDS011;34422;45.802;16.114;2023-04-25T06:56:38;4.93;;;1.40;;
48623;SDS011;34422;45.802;16.114;2023-04-25T06:59:05;3.90;;;1.10;;
48623;SDS011;34422;45.802;16.114;2023-04-25T07:01:32;4.10;;;1.30;;
48623;SDS011;34422;45.802;16.114;2023-04-25T07:03:59;3.10;;;1.25;;
48623;SDS011;34422;45.802;16.114;2023-04-25T07:06:26;2.85;;;1.00;;
48623;SDS011;34422;45.802;16.114;2023-04-25T07:08:54;2.70;;;1.05;;
48623;SDS011;34422;45.802;16.114;2023-04-25T07:11:22;2.90;;;1.10;;
48623;SDS011;34422;45.802;16.114;2023-04-25T07:13:48;2.72;;;1.00;;
48623;SDS011;34422;45.802;16.114;2023-04-25T07:16:15;4.00;;;1.30;;
48623;SDS011;34422;45.802;16.114;2023-04-25T07:18:42;4.95;;;1.67;;
48623;SDS011;34422;45.802;16.114;2023-04-25T07:21:09;4.45;;;1.60;;
48623;SDS011;34422;45.802;16.114;2023-04-25T07:23:36;3.15;;;1.20;;
48623;SDS011;34422;45.802;16.114;2023-04-25T07:26:03;3.47;;;0.90;;
48623;SDS011;34422;45.802;16.114;2023-04-25T07:28:30;2.80;;;1.02;;
48623;SDS011;34422;45.802;16.114;2023-04-25T07:30:57;2.67;;;1.00;;
48623;SDS011;34422;45.802;16.114;2023-04-25T07:33:24;4.00;;;1.00;;
48623;SDS011;34422;45.802;16.114;2023-04-25T07:35:51;3.25;;;0.80;;
48623;SDS011;34422;45.802;16.114;2023-04-25T07:38:18;2.58;;;0.95;;
48623;SDS011;34422;45.802;16.114;2023-04-25T07:40:45;2.45;;;0.93;;
48623;SDS011;34422;45.802;16.114;2023-04-25T07:43:12;2.95;;;1.05;;
48623;SDS011;34422;45.802;16.114;2023-04-25T07:45:41;2.78;;;1.10;;
48623;SDS011;34422;45.802;16.114;2023-04-25T07:48:07;3.30;;;1.08;;
48623;SDS011;34422;45.802;16.114;2023-04-25T07:50:34;3.05;;;0.95;;
48623;SDS011;34422;45.802;16.114;2023-04-25T07:53:01;2.92;;;0.98;;
48623;SDS011;34422;45.802;16.114;2023-04-25T07:55:28;2.88;;;0.80;;
48623;SDS011;34422;45.802;16.114;2023-04-25T07:57:55;2.67;;;1.00;;
48623;SDS011;34422;45.802;16.114;2023-04-25T08:00:21;3.50;;;0.90;;
48623;SDS011;34422;45.802;16.114;2023-04-25T08:02:48;2.17;;;0.90;;
48623;SDS011;34422;45.802;16.114;2023-04-25T08:05:15;3.42;;;0.80;;
48623;SDS011;34422;45.802;16.114;2023-04-25T08:07:42;2.72;;;0.88;;
48623;SDS011;34422;45.802;16.114;2023-04-25T08:10:10;10.15;;;1.10;;
48623;SDS011;34422;45.802;16.114;2023-04-25T08:12:36;2.78;;;0.82;;
48623;SDS011;34422;45.802;16.114;2023-04-25T08:15:03;4.05;;;1.33;;
48623;SDS011;34422;45.802;16.114;2023-04-25T08:17:31;4.32;;;0.98;;
48623;SDS011;34422;45.802;16.114;2023-04-25T08:19:58;2.15;;;0.75;;
48623;SDS011;34422;45.802;16.114;2023-04-25T08:22:25;2.53;;;0.80;;
48623;SDS011;34422;45.802;16.114;2023-04-25T08:24:51;2.50;;;0.90;;
48623;SDS011;34422;45.802;16.114;2023-04-25T08:27:19;2.85;;;1.17;;
48623;SDS011;34422;45.802;16.114;2023-04-25T08:29:47;2.90;;;1.13;;
48623;SDS011;34422;45.802;16.114;2023-04-25T08:32:14;3.80;;;0.88;;
48623;SDS011;34422;45.802;16.114;2023-04-25T08:34:40;1.75;;;0.65;;
48623;SDS011;34422;45.802;16.114;2023-04-25T08:37:08;3.33;;;0.77;;
48623;SDS011;34422;45.802;16.114;2023-04-25T08:39:36;2.63;;;0.82;;
48623;SDS011;34422;45.802;16.114;2023-04-25T08:42:04;3.05;;;1.15;;
48623;SDS011;34422;45.802;16.114;2023-04-25T08:44:35;7.68;;;0.90;;
48623;SDS011;34422;45.802;16.114;2023-04-25T08:47:02;2.88;;;0.70;;
48623;SDS011;34422;45.802;16.114;2023-04-25T08:49:33;2.28;;;0.70;;
48623;SDS011;34422;45.802;16.114;2023-04-25T08:54:30;2.88;;;1.02;;
48623;SDS011;34422;45.802;16.114;2023-04-25T08:56:57;2.88;;;0.90;;
48623;SDS011;34422;45.802;16.114;2023-04-25T08:59:30;1.58;;;0.55;;
48623;SDS011;34422;45.802;16.114;2023-04-25T09:01:58;3.72;;;0.70;;
48623;SDS011;34422;45.802;16.114;2023-04-25T09:04:25;2.05;;;0.77;;
48623;SDS011;34422;45.802;16.114;2023-04-25T09:06:52;2.60;;;0.70;;
48623;SDS011;34422;45.802;16.114;2023-04-25T09:09:18;2.00;;;0.70;;
48623;SDS011;34422;45.802;16.114;2023-04-25T09:11:45;3.42;;;0.70;;
48623;SDS011;34422;45.802;16.114;2023-04-25T09:14:16;2.67;;;0.90;;
48623;SDS011;34422;45.802;16.114;2023-04-25T09:19:23;1.73;;;0.55;;
48623;SDS011;34422;45.802;16.114;2023-04-25T09:21:56;3.05;;;0.73;;
48623;SDS011;34422;45.802;16.114;2023-04-25T09:24:30;1.42;;;0.55;;
48623;SDS011;34422;45.802;16.114;2023-04-25T09:26:58;3.22;;;0.60;;
48623;SDS011;34422;45.802;16.114;2023-04-25T09:29:29;2.13;;;0.70;;
48623;SDS011;34422;45.802;16.114;2023-04-25T09:32:10;2.30;;;0.80;;
48623;SDS011;34422;45.802;16.114;2023-04-25T09:34:41;2.45;;;0.88;;
48623;SDS011;34422;45.802;16.114;2023-04-25T09:37:09;1.63;;;0.50;;
48623;SDS011;34422;45.802;16.114;2023-04-25T09:39:39;1.95;;;0.73;;
48623;SDS011;34422;45.802;16.114;2023-04-25T09:42:06;2.28;;;0.80;;
48623;SDS011;34422;45.802;16.114;2023-04-25T09:44:35;4.25;;;0.80;;
48623;SDS011;34422;45.802;16.114;2023-04-25T09:47:02;4.32;;;0.55;;
48623;SDS011;34422;45.802;16.114;2023-04-25T09:49:29;2.97;;;0.80;;
48623;SDS011;34422;45.802;16.114;2023-04-25T09:51:56;2.45;;;0.63;;
48623;SDS011;34422;45.802;16.114;2023-04-25T09:54:24;2.88;;;0.63;;
48623;SDS011;34422;45.802;16.114;2023-04-25T09:56:52;2.65;;;0.90;;
48623;SDS011;34422;45.802;16.114;2023-04-25T09:59:20;2.05;;;0.60;;
48623;SDS011;34422;45.802;16.114;2023-04-25T10:01:50;2.40;;;0.70;;
48623;SDS011;34422;45.802;16.114;2023-04-25T10:04:20;1.92;;;0.63;;
48623;SDS011;34422;45.802;16.114;2023-04-25T10:06:50;2.67;;;0.60;;
48623;SDS011;34422;45.802;16.114;2023-04-25T10:09:20;3.10;;;0.80;;
48623;SDS011;34422;45.802;16.114;2023-04-25T10:11:47;3.95;;;0.90;;
48623;SDS011;34422;45.802;16.114;2023-04-25T10:14:14;4.45;;;1.05;;
48623;SDS011;34422;45.802;16.114;2023-04-25T10:16:42;2.10;;;0.80;;
48623;SDS011;34422;45.802;16.114;2023-04-25T10:19:09;5.75;;;0.88;;
48623;SDS011;34422;45.802;16.114;2023-04-25T10:21:40;3.00;;;0.70;;
48623;SDS011;34422;45.802;16.114;2023-04-25T10:24:14;2.95;;;0.90;;
48623;SDS011;34422;45.802;16.114;2023-04-25T10:26:41;3.85;;;0.80;;
48623;SDS011;34422;45.802;16.114;2023-04-25T10:29:09;2.95;;;1.10;;
48623;SDS011;34422;45.802;16.114;2023-04-25T10:31:44;3.17;;;0.98;;
48623;SDS011;34422;45.802;16.114;2023-04-25T10:34:12;7.35;;;3.17;;
48623;SDS011;34422;45.802;16.114;2023-04-25T10:36:39;3.35;;;0.93;;
48623;SDS011;34422;45.802;16.114;2023-04-25T10:39:06;4.15;;;1.48;;
48623;SDS011;34422;45.802;16.114;2023-04-25T10:41:55;3.10;;;0.80;;
48623;SDS011;34422;45.802;16.114;2023-04-25T10:44:26;1.80;;;0.65;;
48623;SDS011;34422;45.802;16.114;2023-04-25T10:46:54;4.13;;;1.00;;
48623;SDS011;34422;45.802;16.114;2023-04-25T10:49:30;3.25;;;1.00;;
48623;SDS011;34422;45.802;16.114;2023-04-25T10:52:13;3.38;;;0.90;;
48623;SDS011;34422;45.802;16.114;2023-04-25T10:54:41;2.92;;;0.82;;
48623;SDS011;34422;45.802;16.114;2023-04-25T10:57:25;3.00;;;1.13;;
48623;SDS011;34422;45.802;16.114;2023-04-25T11:00:13;3.17;;;1.25;;
48623;SDS011;34422;45.802;16.114;2023-04-25T11:02:46;2.72;;;1.02;;
48623;SDS011;34422;45.802;16.114;2023-04-25T11:05:32;4.00;;;1.33;;
48623;SDS011;34422;45.802;16.114;2023-04-25T11:08:01;2.78;;;0.77;;
48623;SDS011;34422;45.802;16.114;2023-04-25T11:10:30;2.90;;;0.90;;
48623;SDS011;34422;45.802;16.114;2023-04-25T11:12:58;2.15;;;0.70;;
48623;SDS011;34422;45.802;16.114;2023-04-25T11:15:26;2.08;;;0.80;;
48623;SDS011;34422;45.802;16.114;2023-04-25T11:17:54;2.72;;;1.00;;
48623;SDS011;34422;45.802;16.114;2023-04-25T11:20:22;5.25;;;1.08;;
48623;SDS011;34422;45.802;16.114;2023-04-25T11:22:52;2.80;;;1.10;;
48623;SDS011;34422;45.802;16.114;2023-04-25T11:25:18;3.65;;;0.98;;
48623;SDS011;34422;45.802;16.114;2023-04-25T11:27:52;3.00;;;1.00;;
48623;SDS011;34422;45.802;16.114;2023-04-25T11:30:20;3.70;;;0.95;;
48623;SDS011;34422;45.802;16.114;2023-04-25T11:32:48;2.83;;;0.90;;
48623;SDS011;34422;45.802;16.114;2023-04-25T11:35:15;2.55;;;0.90;;
48623;SDS011;34422;45.802;16.114;2023-04-25T11:37:43;2.85;;;0.90;;
48623;SDS011;34422;45.802;16.114;2023-04-25T11:40:10;2.17;;;0.70;;
48623;SDS011;34422;45.802;16.114;2023-04-25T11:42:38;3.28;;;0.85;;
48623;SDS011;34422;45.802;16.114;2023-04-25T11:45:05;2.05;;;0.70;;
48623;SDS011;34422;45.802;16.114;2023-04-25T11:47:33;2.25;;;0.70;;
48623;SDS011;34422;45.802;16.114;2023-04-25T11:50:01;3.53;;;0.93;;
48623;SDS011;34422;45.802;16.114;2023-04-25T11:52:36;7.90;;;1.05;;
48623;SDS011;34422;45.802;16.114;2023-04-25T11:55:13;2.38;;;0.80;;
48623;SDS011;34422;45.802;16.114;2023-04-25T11:57:42;2.38;;;0.82;;
48623;SDS011;34422;45.802;16.114;2023-04-25T12:02:46;3.05;;;0.70;;
48623;SDS011;34422;45.802;16.114;2023-04-25T12:05:17;2.15;;;0.70;;
48623;SDS011;34422;45.802;16.114;2023-04-25T12:07:44;2.60;;;0.88;;
48623;SDS011;34422;45.802;16.114;2023-04-25T12:10:11;2.58;;;0.75;;
48623;SDS011;34422;45.802;16.114;2023-04-25T12:12:44;2.30;;;0.82;;
48623;SDS011;34422;45.802;16.114;2023-04-25T12:15:13;3.30;;;0.80;;
48623;SDS011;34422;45.802;16.114;2023-04-25T12:17:49;2.47;;;0.80;;
48623;SDS011;34422;45.802;16.114;2023-04-25T12:20:18;4.13;;;0.98;;
48623;SDS011;34422;45.802;16.114;2023-04-25T12:22:47;2.45;;;0.77;;
48623;SDS011;34422;45.802;16.114;2023-04-25T12:28:24;2.50;;;0.82;;
48623;SDS011;34422;45.802;16.114;2023-04-25T12:31:01;3.03;;;0.80;;
48623;SDS011;34422;45.802;16.114;2023-04-25T12:33:30;4.47;;;1.00;;
48623;SDS011;34422;45.802;16.114;2023-04-25T12:35:59;4.15;;;0.98;;
48623;SDS011;34422;45.802;16.114;2023-04-25T12:38:30;3.08;;;1.05;;
48623;SDS011;34422;45.802;16.114;2023-04-25T12:40:58;2.58;;;0.88;;
48623;SDS011;34422;45.802;16.114;2023-04-25T12:43:25;2.72;;;1.00;;
48623;SDS011;34422;45.802;16.114;2023-04-25T12:45:52;3.78;;;1.10;;
48623;SDS011;34422;45.802;16.114;2023-04-25T12:48:19;2.85;;;1.00;;
48623;SDS011;34422;45.802;16.114;2023-04-25T12:50:47;3.22;;;0.85;;
48623;SDS011;34422;45.802;16.114;2023-04-25T12:53:15;3.08;;;0.85;;
48623;SDS011;34422;45.802;16.114;2023-04-25T12:55:43;2.70;;;0.90;;
48623;SDS011;34422;45.802;16.114;2023-04-25T12:58:12;2.92;;;1.00;;
48623;SDS011;34422;45.802;16.114;2023-04-25T13:00:40;4.30;;;1.27;;
48623;SDS011;34422;45.802;16.114;2023-04-25T13:03:06;3.33;;;1.10;;
48623;SDS011;34422;45.802;16.114;2023-04-25T13:05:33;4.05;;;1.10;;
48623;SDS011;34422;45.802;16.114;2023-04-25T13:08:00;2.72;;;0.98;;
48623;SDS011;34422;45.802;16.114;2023-04-25T13:10:26;3.08;;;1.00;;
48623;SDS011;34422;45.802;16.114;2023-04-25T13:12:53;3.00;;;0.93;;
48623;SDS011;34422;45.802;16.114;2023-04-25T13:15:20;3.15;;;0.93;;
48623;SDS011;34422;45.802;16.114;2023-04-25T13:17:48;4.00;;;1.13;;
48623;SDS011;34422;45.802;16.114;2023-04-25T13:20:15;3.63;;;1.20;;
48623;SDS011;34422;45.802;16.114;2023-04-25T13:22:42;4.93;;;1.10;;
48623;SDS011;34422;45.802;16.114;2023-04-25T13:25:09;2.95;;;1.13;;
48623;SDS011;34422;45.802;16.114;2023-04-25T13:27:36;3.05;;;1.02;;
48623;SDS011;34422;45.802;16.114;2023-04-25T13:30:04;4.15;;;1.40;;
48623;SDS011;34422;45.802;16.114;2023-04-25T13:32:34;3.58;;;1.00;;
48623;SDS011;34422;45.802;16.114;2023-04-25T13:35:04;3.50;;;0.93;;
48623;SDS011;34422;45.802;16.114;2023-04-25T13:37:32;2.78;;;1.05;;
48623;SDS011;34422;45.802;16.114;2023-04-25T13:40:00;3.30;;;0.90;;
48623;SDS011;34422;45.802;16.114;2023-04-25T13:42:28;5.07;;;1.67;;
48623;SDS011;34422;45.802;16.114;2023-04-25T13:44:55;4.13;;;1.00;;
48623;SDS011;34422;45.802;16.114;2023-04-25T13:47:22;3.72;;;1.00;;
48623;SDS011;34422;45.802;16.114;2023-04-25T13:49:49;3.92;;;1.00;;
48623;SDS011;34422;45.802;16.114;2023-04-25T13:52:16;2.85;;;0.80;;
48623;SDS011;34422;45.802;16.114;2023-04-25T13:54:43;2.50;;;0.80;;
48623;SDS011;34422;45.802;16.114;2023-04-25T13:57:10;3.67;;;1.00;;
48623;SDS011;34422;45.802;16.114;2023-04-25T13:59:38;4.15;;;0.80;;
48623;SDS011;34422;45.802;16.114;2023-04-25T14:02:06;5.30;;;1.05;;
48623;SDS011;34422;45.802;16.114;2023-04-25T14:04:33;2.75;;;0.98;;
48623;SDS011;34422;45.802;16.114;2023-04-25T14:07:00;1.85;;;0.68;;
48623;SDS011;34422;45.802;16.114;2023-04-25T14:09:28;4.05;;;0.80;;
48623;SDS011;34422;45.802;16.114;2023-04-25T14:11:55;4.35;;;1.10;;
48623;SDS011;34422;45.802;16.114;2023-04-25T14:14:23;3.58;;;0.88;;
48623;SDS011;34422;45.802;16.114;2023-04-25T14:16:50;3.22;;;0.80;;
48623;SDS011;34422;45.802;16.114;2023-04-25T14:19:20;2.53;;;0.95;;
48623;SDS011;34422;45.802;16.114;2023-04-25T14:21:47;3.65;;;1.13;;
48623;SDS011;34422;45.802;16.114;2023-04-25T14:24:14;3.17;;;1.50;;
48623;SDS011;34422;45.802;16.114;2023-04-25T14:26:41;7.10;;;1.33;;
48623;SDS011;34422;45.802;16.114;2023-04-25T14:29:08;3.55;;;1.30;;
48623;SDS011;34422;45.802;16.114;2023-04-25T14:31:38;3.78;;;0.90;;
48623;SDS011;34422;45.802;16.114;2023-04-25T14:34:06;3.78;;;1.08;;
48623;SDS011;34422;45.802;16.114;2023-04-25T14:36:34;3.35;;;1.00;;
48623;SDS011;34422;45.802;16.114;2023-04-25T14:39:02;3.08;;;0.85;;
48623;SDS011;34422;45.802;16.114;2023-04-25T14:41:29;3.20;;;0.80;;
48623;SDS011;34422;45.802;16.114;2023-04-25T14:43:56;3.90;;;1.55;;
48623;SDS011;34422;45.802;16.114;2023-04-25T14:46:23;31.33;;;23.98;;
48623;SDS011;34422;45.802;16.114;2023-04-25T14:48:50;4.50;;;1.90;;
48623;SDS011;34422;45.802;16.114;2023-04-25T14:51:17;3.88;;;0.95;;